Time;durP1;ratioP1;P1;durP2;ratioP2;P2;SDS_P1;SDS_P2;PMS_P1;PMS_P2;Temp;Humidity;BMP_temperature;BMP_pressure;BME280_temperature;BME280_humidity;BME280_pressure;Samples;Min_cycle;Max_cycle;Signal;HPM_P1;HPM_P2
2023/03/07 00:00:50;;;;;;;2.83;2.05;;;6.20;85.80;;;;;;5108977;27;20043;-66
2023/03/07 00:03:17;;;;;;;4.35;2.58;;;6.30;85.80;;;;;;5109868;27;20080;-66
2023/03/07 00:05:43;;;;;;;3.88;2.95;;;6.20;85.80;;;;;;5126597;27;20554;-66
2023/03/07 00:08:09;;;;;;;4.13;2.50;;;6.30;86.00;;;;;;5113551;27;20040;-66
2023/03/07 00:10:35;;;;;;;4.93;3.13;;;6.30;86.00;;;;;;5110689;27;20024;-66
2023/03/07 00:13:00;;;;;;;3.78;2.33;;;6.20;86.10;;;;;;5097372;27;20036;-66
2023/03/07 00:15:26;;;;;;;5.93;3.80;;;6.30;86.20;;;;;;5106364;27;20105;-65
2023/03/07 00:17:51;;;;;;;4.53;2.92;;;6.20;86.90;;;;;;5101251;27;20637;-66
2023/03/07 00:20:17;;;;;;;3.95;2.55;;;6.10;86.90;;;;;;5098891;27;20059;-66
2023/03/07 00:22:45;;;;;;;4.70;2.40;;;6.20;86.80;;;;;;5100309;27;20046;-66
2023/03/07 00:25:11;;;;;;;3.40;2.22;;;6.20;86.60;;;;;;5103188;27;20077;-67
2023/03/07 00:27:37;;;;;;;3.45;2.28;;;6.20;86.50;;;;;;5098460;28;20024;-66
2023/03/07 00:30:04;;;;;;;3.67;1.90;;;6.30;86.50;;;;;;5101425;28;20106;-66
2023/03/07 00:32:30;;;;;;;4.05;2.20;;;6.20;86.40;;;;;;5101713;28;20031;-66
2023/03/07 00:34:57;;;;;;;3.22;1.98;;;6.20;86.30;;;;;;5098458;28;20032;-67
2023/03/07 00:37:23;;;;;;;4.40;2.70;;;6.30;86.30;;;;;;5108623;27;20015;-66
2023/03/07 00:39:49;;;;;;;4.05;2.10;;;6.30;86.30;;;;;;5095660;28;20879;-66
2023/03/07 00:42:14;;;;;;;3.05;2.22;;;6.30;86.20;;;;;;5090316;28;20035;-66
2023/03/07 00:44:40;;;;;;;2.92;1.75;;;6.30;86.00;;;;;;5108133;28;20070;-66
2023/03/07 00:47:06;;;;;;;3.00;2.13;;;6.30;86.10;;;;;;5110187;27;20756;-66
2023/03/07 00:49:32;;;;;;;2.50;1.75;;;6.30;86.20;;;;;;5102060;28;20028;-66
2023/03/07 00:51:57;;;;;;;5.00;1.90;;;6.30;86.40;;;;;;5099419;28;20035;-66
2023/03/07 00:54:23;;;;;;;2.40;1.73;;;6.20;86.50;;;;;;5093538;28;20016;-65
2023/03/07 00:56:49;;;;;;;2.13;1.70;;;6.20;86.40;;;;;;5106726;27;20490;-66
2023/03/07 00:59:14;;;;;;;2.90;1.92;;;6.20;86.30;;;;;;5112950;27;20019;-66
2023/03/07 01:01:40;;;;;;;2.83;2.10;;;6.30;86.40;;;;;;5100829;27;20035;-66
2023/03/07 01:04:06;;;;;;;3.70;1.90;;;6.20;86.50;;;;;;5094979;28;20026;-66
2023/03/07 01:06:32;;;;;;;2.97;2.17;;;6.20;86.50;;;;;;5101285;27;20120;-66
2023/03/07 01:09:00;;;;;;;2.10;1.48;;;6.30;86.60;;;;;;5100410;27;20050;-66
2023/03/07 01:11:28;;;;;;;3.47;2.17;;;6.30;86.60;;;;;;5096770;28;20024;-66
2023/03/07 01:13:58;;;;;;;3.80;1.80;;;6.20;86.60;;;;;;5103641;27;20036;-65
2023/03/07 01:16:27;;;;;;;5.05;2.47;;;6.30;86.60;;;;;;5103159;27;20024;-66
2023/03/07 01:18:54;;;;;;;3.33;2.10;;;6.30;86.50;;;;;;5104484;27;20024;-65
2023/03/07 01:21:29;;;;;;;3.63;2.30;;;6.30;86.50;;;;;;5101702;28;20070;-65
2023/03/07 01:23:54;;;;;;;6.18;2.40;;;6.30;86.50;;;;;;5097554;28;20028;-66
2023/03/07 01:26:23;;;;;;;4.03;2.33;;;6.30;86.40;;;;;;5098205;28;20027;-65
2023/03/07 01:28:50;;;;;;;3.67;2.42;;;6.40;86.30;;;;;;5100862;28;20496;-66
2023/03/07 01:31:17;;;;;;;4.53;3.03;;;6.40;86.20;;;;;;5103539;28;20052;-65
2023/03/07 01:33:43;;;;;;;3.65;2.25;;;6.30;86.10;;;;;;5103824;27;20498;-65
2023/03/07 01:36:35;;;;;;;4.60;2.75;;;6.40;86.10;;;;;;5104848;28;20035;-65
2023/03/07 01:39:12;;;;;;;3.45;2.22;;;6.40;86.80;;;;;;5098047;28;20032;-66
2023/03/07 01:41:39;;;;;;;3.70;2.45;;;6.40;86.20;;;;;;5100792;28;20035;-65
2023/03/07 01:44:16;;;;;;;4.70;2.50;;;6.50;86.10;;;;;;5099471;28;20497;-65
2023/03/07 01:46:41;;;;;;;3.22;2.25;;;6.40;86.00;;;;;;5096169;28;20024;-66
2023/03/07 01:49:28;;;;;;;6.28;3.00;;;6.40;86.00;;;;;;5093490;28;20095;-65
2023/03/07 01:52:07;;;;;;;3.70;2.22;;;6.40;86.00;;;;;;5108623;27;20076;-66
2023/03/07 01:54:37;;;;;;;5.53;2.80;;;6.40;86.00;;;;;;5098582;28;20050;-66
2023/03/07 01:57:03;;;;;;;4.40;2.53;;;6.40;86.00;;;;;;5096110;28;20055;-66
2023/03/07 01:59:34;;;;;;;4.32;2.70;;;6.40;86.10;;;;;;5094362;28;20066;-65
2023/03/07 02:02:05;;;;;;;3.70;2.20;;;6.50;86.20;;;;;;5094508;28;20020;-65
2023/03/07 02:05:04;;;;;;;3.72;2.72;;;6.40;86.20;;;;;;5096304;28;20020;-66
2023/03/07 02:07:39;;;;;;;4.38;2.83;;;6.50;86.30;;;;;;5092009;28;20036;-65
2023/03/07 02:10:06;;;;;;;5.50;3.08;;;6.40;86.40;;;;;;5100827;28;20077;-66
2023/03/07 02:12:33;;;;;;;4.65;2.70;;;6.40;86.50;;;;;;5122077;27;20024;-66
2023/03/07 02:14:58;;;;;;;4.40;2.65;;;6.40;86.50;;;;;;5090830;28;20708;-66
2023/03/07 02:17:26;;;;;;;3.72;2.38;;;6.40;86.40;;;;;;5094425;28;20020;-65
2023/03/07 02:20:25;;;;;;;4.53;2.58;;;6.50;86.30;;;;;;5098982;27;20800;-65
2023/03/07 02:22:50;;;;;;;4.75;2.50;;;6.40;86.50;;;;;;5111170;27;20142;-65
2023/03/07 02:25:40;;;;;;;3.20;2.28;;;6.40;86.40;;;;;;5106874;28;20095;-65
2023/03/07 02:28:08;;;;;;;3.92;2.20;;;6.40;86.30;;;;;;5097045;27;20032;-66
2023/03/07 02:30:36;;;;;;;3.70;2.45;;;6.40;86.30;;;;;;5099055;27;20020;-65
2023/03/07 02:33:01;;;;;;;4.13;2.50;;;6.50;86.20;;;;;;5110115;27;20084;-65
2023/03/07 02:35:27;;;;;;;3.58;2.53;;;6.50;86.10;;;;;;5101549;27;20028;-66
2023/03/07 02:37:58;;;;;;;3.28;2.22;;;6.40;85.90;;;;;;5102838;27;20023;-66
2023/03/07 02:40:28;;;;;;;3.45;1.88;;;6.40;86.10;;;;;;5099097;27;20167;-65
2023/03/07 02:42:56;;;;;;;3.50;1.83;;;6.40;86.10;;;;;;5094917;27;20048;-64
2023/03/07 02:45:21;;;;;;;2.67;2.00;;;6.40;86.10;;;;;;5110195;27;20020;-64
2023/03/07 02:47:47;;;;;;;3.45;1.98;;;6.40;86.00;;;;;;5102643;27;20023;-64
2023/03/07 02:50:14;;;;;;;2.88;1.80;;;6.40;85.90;;;;;;5101943;27;20054;-65
2023/03/07 02:52:39;;;;;;;3.28;1.70;;;6.40;85.90;;;;;;5108749;28;20027;-66
2023/03/07 02:55:06;;;;;;;2.28;1.60;;;6.40;85.90;;;;;;5105457;27;20019;-65
2023/03/07 02:57:32;;;;;;;4.25;1.75;;;6.50;86.00;;;;;;5104975;27;20040;-65
2023/03/07 02:59:58;;;;;;;3.08;1.70;;;6.40;85.80;;;;;;5104151;27;20417;-65
2023/03/07 03:02:24;;;;;;;3.30;1.80;;;6.40;85.90;;;;;;5095667;27;20016;-67
2023/03/07 03:04:50;;;;;;;2.80;1.58;;;6.40;85.90;;;;;;5103597;27;20030;-65
2023/03/07 03:07:16;;;;;;;2.65;1.80;;;6.40;85.90;;;;;;5097389;27;20032;-65
2023/03/07 03:09:41;;;;;;;2.00;1.40;;;6.40;85.90;;;;;;5101265;28;20027;-65
2023/03/07 03:12:07;;;;;;;2.83;1.63;;;6.40;85.80;;;;;;5106868;28;20123;-66
2023/03/07 03:14:33;;;;;;;2.22;1.60;;;6.30;85.80;;;;;;5099570;27;20019;-66
2023/03/07 03:16:58;;;;;;;3.15;1.65;;;6.30;85.90;;;;;;5115102;27;20035;-65
2023/03/07 03:19:24;;;;;;;2.60;1.60;;;6.30;85.90;;;;;;5114616;27;20026;-65
2023/03/07 03:21:49;;;;;;;2.95;1.63;;;6.30;86.00;;;;;;5103143;28;20023;-65
2023/03/07 03:24:15;;;;;;;2.72;1.42;;;6.30;86.00;;;;;;5101274;27;20514;-66
2023/03/07 03:26:41;;;;;;;2.33;1.60;;;6.30;86.00;;;;;;5109527;27;20521;-65
2023/03/07 03:29:07;;;;;;;2.58;1.45;;;6.30;86.00;;;;;;5105502;28;20024;-66
2023/03/07 03:31:33;;;;;;;2.30;1.40;;;6.30;86.00;;;;;;5104480;27;20103;-66
2023/03/07 03:33:59;;;;;;;3.38;1.50;;;6.30;86.00;;;;;;5106295;27;20027;-66
2023/03/07 03:36:26;;;;;;;1.60;1.25;;;6.30;86.00;;;;;;5103934;28;20023;-65
2023/03/07 03:38:53;;;;;;;1.55;1.23;;;6.30;85.90;;;;;;5109693;28;20039;-65
2023/03/07 03:41:18;;;;;;;1.90;1.30;;;6.30;85.80;;;;;;5111261;27;20028;-66
2023/03/07 03:43:45;;;;;;;1.95;1.23;;;6.30;85.80;;;;;;5097293;27;20028;-65
2023/03/07 03:46:10;;;;;;;2.33;1.13;;;6.30;85.70;;;;;;5090598;28;20525;-65
2023/03/07 03:48:36;;;;;;;2.20;1.40;;;6.20;85.70;;;;;;5099311;27;20024;-65
2023/03/07 03:51:10;;;;;;;2.85;1.30;;;6.20;85.80;;;;;;5112667;27;20046;-66
2023/03/07 03:53:38;;;;;;;2.47;1.30;;;6.20;85.90;;;;;;5101075;28;20869;-66
2023/03/07 03:56:15;;;;;;;3.65;1.30;;;6.20;85.70;;;;;;5095485;28;20049;-65
2023/03/07 03:58:41;;;;;;;2.10;1.30;;;6.30;85.80;;;;;;5091326;28;20020;-66
2023/03/07 04:01:09;;;;;;;1.38;1.00;;;6.30;85.80;;;;;;5114009;27;20796;-65
2023/03/07 04:03:40;;;;;;;1.35;1.02;;;6.30;85.70;;;;;;5098713;27;20492;-66
2023/03/07 04:06:09;;;;;;;2.28;1.27;;;6.30;85.60;;;;;;5112537;27;20023;-66
2023/03/07 04:08:35;;;;;;;1.20;1.10;;;6.30;85.60;;;;;;5108673;27;20011;-66
2023/03/07 04:11:01;;;;;;;2.78;1.23;;;6.30;85.50;;;;;;5112416;27;20034;-67
2023/03/07 04:13:27;;;;;;;1.63;1.40;;;6.30;85.40;;;;;;5102746;28;20024;-67
2023/03/07 04:15:55;;;;;;;1.58;1.35;;;6.30;85.40;;;;;;5094391;27;20028;-66
2023/03/07 04:18:21;;;;;;;1.77;1.25;;;6.40;85.40;;;;;;5113327;27;20402;-66
2023/03/07 04:20:48;;;;;;;1.02;0.93;;;6.30;85.30;;;;;;5100412;28;20050;-65
2023/03/07 04:23:14;;;;;;;3.70;1.40;;;6.30;85.40;;;;;;5094270;28;20028;-65
2023/03/07 04:25:45;;;;;;;2.22;1.33;;;6.30;85.50;;;;;;5107710;27;20500;-64
2023/03/07 04:28:10;;;;;;;2.67;1.70;;;6.30;85.60;;;;;;5112324;27;20055;-65
2023/03/07 04:30:36;;;;;;;2.78;1.20;;;6.30;85.60;;;;;;5125689;27;20099;-65
2023/03/07 04:33:01;;;;;;;1.40;1.30;;;6.20;85.60;;;;;;5101235;27;20067;-66
2023/03/07 04:35:27;;;;;;;3.90;2.00;;;6.30;85.60;;;;;;5104660;27;20630;-64
2023/03/07 04:37:52;;;;;;;2.47;1.70;;;6.20;85.60;;;;;;5109000;27;20479;-64
2023/03/07 04:40:18;;;;;;;3.38;1.70;;;6.30;85.70;;;;;;5093446;28;20498;-66
2023/03/07 04:42:44;;;;;;;2.65;1.55;;;6.30;85.70;;;;;;5090778;28;20521;-66
2023/03/07 04:45:09;;;;;;;2.47;1.73;;;6.20;85.60;;;;;;5104755;27;20704;-65
2023/03/07 04:47:35;;;;;;;1.60;1.23;;;6.30;85.60;;;;;;5089468;28;20146;-65
2023/03/07 04:50:01;;;;;;;1.63;1.48;;;6.30;85.60;;;;;;5095332;28;20092;-66
2023/03/07 04:52:26;;;;;;;2.58;1.50;;;6.30;85.50;;;;;;5103473;27;20489;-67
2023/03/07 04:54:52;;;;;;;1.98;1.45;;;6.30;85.40;;;;;;5108679;27;20104;-65
2023/03/07 04:57:17;;;;;;;2.53;1.40;;;6.30;85.40;;;;;;5109532;28;20019;-65
2023/03/07 04:59:43;;;;;;;3.63;1.60;;;6.20;85.30;;;;;;5099222;28;20073;-64
2023/03/07 05:02:12;;;;;;;4.22;1.30;;;6.20;85.30;;;;;;5102277;27;20077;-64
2023/03/07 05:04:37;;;;;;;1.60;1.40;;;6.20;85.40;;;;;;5111369;27;20024;-65
2023/03/07 05:07:04;;;;;;;1.20;1.10;;;6.20;85.30;;;;;;5090336;28;20442;-66
2023/03/07 05:09:30;;;;;;;2.10;1.17;;;6.20;85.30;;;;;;5089155;28;20034;-66
2023/03/07 05:11:55;;;;;;;1.95;1.30;;;6.20;85.30;;;;;;5104017;27;20030;-66
2023/03/07 05:14:21;;;;;;;2.53;1.17;;;6.20;85.30;;;;;;5107169;27;20032;-66
2023/03/07 05:16:47;;;;;;;2.05;1.20;;;6.20;85.30;;;;;;5099864;27;20034;-64
2023/03/07 05:19:12;;;;;;;2.03;1.10;;;6.20;85.10;;;;;;5108613;27;20119;-64
2023/03/07 05:21:42;;;;;;;1.70;1.20;;;6.20;85.10;;;;;;5111593;27;20031;-66
2023/03/07 05:24:09;;;;;;;1.73;1.20;;;6.10;85.10;;;;;;5107080;27;20485;-66
2023/03/07 05:26:34;;;;;;;2.08;1.15;;;6.10;85.20;;;;;;5094866;27;20016;-64
2023/03/07 05:29:00;;;;;;;1.35;0.90;;;6.10;85.30;;;;;;5112827;27;20059;-66
2023/03/07 05:31:25;;;;;;;1.92;1.27;;;6.10;85.30;;;;;;5091866;28;20027;-66
2023/03/07 05:33:51;;;;;;;3.28;1.10;;;6.20;85.20;;;;;;5108128;27;20031;-65
2023/03/07 05:36:17;;;;;;;1.00;0.90;;;6.10;85.00;;;;;;5112766;27;20023;-64
2023/03/07 05:38:43;;;;;;;1.13;0.98;;;6.20;85.10;;;;;;5095312;28;20020;-65
2023/03/07 05:41:08;;;;;;;2.33;1.20;;;6.10;84.90;;;;;;5107928;27;20032;-66
2023/03/07 05:43:34;;;;;;;3.72;1.40;;;6.10;84.90;;;;;;5089378;28;20047;-65
2023/03/07 05:45:59;;;;;;;3.33;1.58;;;6.10;84.90;;;;;;5095628;28;20036;-66
2023/03/07 05:48:25;;;;;;;1.85;0.98;;;6.10;85.00;;;;;;5101721;28;20482;-65
2023/03/07 05:50:50;;;;;;;2.13;1.30;;;6.00;85.00;;;;;;5105780;28;20442;-66
2023/03/07 05:53:16;;;;;;;2.45;1.33;;;6.00;85.20;;;;;;5108478;28;20280;-67
2023/03/07 05:55:42;;;;;;;3.70;1.20;;;6.00;85.30;;;;;;5103464;28;20020;-64
2023/03/07 05:58:08;;;;;;;1.73;1.10;;;6.00;85.30;;;;;;5110556;27;20016;-64
2023/03/07 06:00:33;;;;;;;1.20;1.10;;;5.90;85.20;;;;;;5125348;27;20167;-66
2023/03/07 06:03:01;;;;;;;1.83;1.30;;;5.90;85.20;;;;;;5116045;27;20089;-64
2023/03/07 06:05:27;;;;;;;1.38;1.10;;;5.90;85.20;;;;;;5102605;28;20024;-64
2023/03/07 06:07:52;;;;;;;0.95;0.85;;;5.90;85.30;;;;;;5119074;27;20019;-65
2023/03/07 06:10:18;;;;;;;1.10;1.00;;;5.80;85.90;;;;;;5117760;27;20035;-65
2023/03/07 06:12:47;;;;;;;1.33;0.90;;;5.90;85.20;;;;;;5108133;27;20030;-66
2023/03/07 06:15:13;;;;;;;3.08;1.02;;;5.80;85.10;;;;;;5102674;27;20055;-66
2023/03/07 06:17:39;;;;;;;3.03;1.35;;;5.80;85.00;;;;;;5105141;28;20546;-65
2023/03/07 06:20:05;;;;;;;3.55;1.63;;;5.80;85.10;;;;;;5102317;27;20028;-66
2023/03/07 06:22:31;;;;;;;1.85;1.20;;;5.70;85.10;;;;;;5107629;27;20103;-65
2023/03/07 06:24:56;;;;;;;1.30;1.02;;;5.60;85.30;;;;;;5102619;28;20095;-65
2023/03/07 06:27:22;;;;;;;2.05;1.20;;;5.50;85.30;;;;;;5107652;27;20180;-65
2023/03/07 06:29:47;;;;;;;1.17;0.90;;;5.30;85.10;;;;;;5101919;28;20500;-66
2023/03/07 06:32:13;;;;;;;1.05;0.68;;;5.10;85.30;;;;;;5097702;28;20554;-66
2023/03/07 06:34:38;;;;;;;0.65;0.57;;;4.90;85.50;;;;;;5106189;28;20034;-66
2023/03/07 06:37:04;;;;;;;1.52;0.85;;;4.70;85.60;;;;;;5100043;27;20024;-65
2023/03/07 06:39:30;;;;;;;1.30;0.82;;;4.60;85.90;;;;;;5109847;27;20115;-66
2023/03/07 06:41:55;;;;;;;0.95;0.47;;;4.50;86.00;;;;;;5103191;27;20513;-64
2023/03/07 06:44:21;;;;;;;0.93;0.60;;;4.40;86.10;;;;;;5100327;27;20120;-67
2023/03/07 06:46:47;;;;;;;0.70;0.60;;;4.40;86.10;;;;;;5099598;28;20032;-65
2023/03/07 06:49:12;;;;;;;0.77;0.60;;;4.40;86.00;;;;;;5105218;28;20020;-64
2023/03/07 06:51:38;;;;;;;0.82;0.70;;;4.40;86.00;;;;;;5102261;27;20664;-66
2023/03/07 06:54:04;;;;;;;0.73;0.60;;;4.40;86.10;;;;;;5101120;28;20118;-65
2023/03/07 06:56:30;;;;;;;0.80;0.70;;;4.40;85.90;;;;;;5100662;28;20020;-65
2023/03/07 06:58:55;;;;;;;0.70;0.60;;;4.40;85.90;;;;;;5109304;28;20012;-64
2023/03/07 07:01:22;;;;;;;0.55;0.52;;;4.50;85.70;;;;;;5105124;27;20430;-64
2023/03/07 07:03:48;;;;;;;0.50;0.50;;;4.50;85.50;;;;;;5120091;27;20746;-63
2023/03/07 07:06:14;;;;;;;0.60;0.60;;;4.50;85.40;;;;;;5105235;27;20030;-64
2023/03/07 07:08:40;;;;;;;1.00;0.70;;;4.50;85.40;;;;;;5102745;28;20525;-65
2023/03/07 07:11:05;;;;;;;1.80;0.60;;;4.50;85.30;;;;;;5100319;28;20111;-65
2023/03/07 07:13:31;;;;;;;0.55;0.52;;;4.50;85.30;;;;;;5097604;28;20736;-65
2023/03/07 07:16:05;;;;;;;0.60;0.60;;;4.50;85.30;;;;;;5097229;27;20151;-66
2023/03/07 07:18:32;;;;;;;0.47;0.47;;;4.50;85.40;;;;;;5102168;28;20020;-65
2023/03/07 07:20:57;;;;;;;0.77;0.60;;;4.50;85.30;;;;;;5104317;27;20028;-65
2023/03/07 07:23:25;;;;;;;0.60;0.60;;;4.40;85.20;;;;;;5102446;27;20431;-66
2023/03/07 07:25:50;;;;;;;0.85;0.85;;;4.30;85.10;;;;;;5095073;28;20371;-65
2023/03/07 07:28:16;;;;;;;1.50;0.50;;;4.30;85.20;;;;;;5102787;27;20031;-65
2023/03/07 07:30:42;;;;;;;1.05;0.65;;;4.20;85.30;;;;;;5101913;27;20031;-66
2023/03/07 07:33:07;;;;;;;0.93;0.60;;;4.30;85.40;;;;;;5095880;27;20035;-68
2023/03/07 07:35:33;;;;;;;1.00;0.57;;;4.10;85.10;;;;;;5094974;28;20028;-64
2023/03/07 07:37:59;;;;;;;0.60;0.60;;;4.20;85.10;;;;;;5099021;27;20020;-65
2023/03/07 07:40:24;;;;;;;0.88;0.60;;;4.20;85.20;;;;;;5099843;28;20424;-65
2023/03/07 07:42:53;;;;;;;0.57;0.57;;;4.10;85.10;;;;;;5100825;27;20036;-67
2023/03/07 07:45:23;;;;;;;0.73;0.60;;;4.10;85.10;;;;;;5105393;27;20059;-65
2023/03/07 07:47:49;;;;;;;1.83;0.77;;;4.00;85.10;;;;;;5098711;27;20504;-65
2023/03/07 07:50:16;;;;;;;0.65;0.60;;;4.10;85.20;;;;;;5108023;27;20437;-65
2023/03/07 07:52:42;;;;;;;0.80;0.80;;;4.10;85.10;;;;;;5102966;27;20474;-68
2023/03/07 07:55:09;;;;;;;0.60;0.60;;;4.00;85.10;;;;;;5105359;27;20015;-65
2023/03/07 07:57:35;;;;;;;1.70;0.70;;;4.10;85.20;;;;;;5107545;27;20023;-67
2023/03/07 08:00:02;;;;;;;0.63;0.63;;;4.10;85.70;;;;;;5108091;27;20114;-68
2023/03/07 08:02:29;;;;;;;0.95;0.80;;;4.10;85.10;;;;;;5105269;27;20411;-66
2023/03/07 08:04:54;;;;;;;0.40;0.40;;;4.10;85.00;;;;;;5100679;28;20054;-66
2023/03/07 08:07:20;;;;;;;0.60;0.60;;;4.20;85.00;;;;;;5102361;27;20086;-65
2023/03/07 08:09:46;;;;;;;1.65;0.55;;;4.30;84.70;;;;;;5093060;28;20036;-65
2023/03/07 08:12:12;;;;;;;2.05;0.77;;;4.20;84.70;;;;;;5102129;28;20032;-65
2023/03/07 08:14:39;;;;;;;1.08;0.80;;;4.30;84.70;;;;;;5104593;28;20020;-66
2023/03/07 08:17:05;;;;;;;0.70;0.70;;;4.30;84.70;;;;;;5105303;27;20028;-66
2023/03/07 08:19:30;;;;;;;0.70;0.60;;;4.30;84.70;;;;;;5112459;27;20088;-65
2023/03/07 08:21:57;;;;;;;0.52;0.52;;;4.40;84.60;;;;;;5111817;27;20019;-66
2023/03/07 08:24:23;;;;;;;0.65;0.65;;;4.40;84.50;;;;;;5109389;27;20030;-66
2023/03/07 08:26:49;;;;;;;0.70;0.70;;;4.40;84.40;;;;;;5120265;27;20019;-66
2023/03/07 08:29:16;;;;;;;1.58;0.70;;;4.40;84.40;;;;;;5095492;27;20669;-65
2023/03/07 08:31:45;;;;;;;0.70;0.70;;;4.40;84.40;;;;;;5101420;27;20024;-65
2023/03/07 08:34:11;;;;;;;0.68;0.68;;;4.50;84.50;;;;;;5104177;28;20114;-67
2023/03/07 08:36:38;;;;;;;0.55;0.55;;;4.50;84.30;;;;;;5098418;27;20032;-66
2023/03/07 08:39:03;;;;;;;0.70;0.70;;;4.60;84.30;;;;;;5103523;28;20024;-65
2023/03/07 08:41:29;;;;;;;2.53;1.10;;;4.50;84.10;;;;;;5100740;28;20030;-65
2023/03/07 08:43:55;;;;;;;1.00;0.75;;;4.60;84.10;;;;;;5103803;28;20438;-66
2023/03/07 08:46:20;;;;;;;0.70;0.68;;;4.60;84.10;;;;;;5104762;28;20224;-66
2023/03/07 08:48:46;;;;;;;0.75;0.60;;;4.60;84.10;;;;;;5089802;28;20077;-66
2023/03/07 08:51:14;;;;;;;0.80;0.80;;;4.60;84.10;;;;;;5094079;28;20031;-67
2023/03/07 08:53:42;;;;;;;1.00;0.88;;;4.60;84.10;;;;;;5102997;28;20043;-66
2023/03/07 08:56:14;;;;;;;2.75;0.98;;;4.60;84.20;;;;;;5093410;28;20019;-66
2023/03/07 08:58:39;;;;;;;1.17;0.88;;;4.60;84.20;;;;;;5109862;27;20107;-67
2023/03/07 09:01:06;;;;;;;1.33;1.02;;;4.60;84.10;;;;;;5098022;27;20099;-65
2023/03/07 09:03:32;;;;;;;1.10;1.00;;;4.60;84.00;;;;;;5109406;28;20055;-67
2023/03/07 09:05:58;;;;;;;1.00;0.90;;;4.60;84.00;;;;;;5095017;28;20513;-66
2023/03/07 09:08:24;;;;;;;1.80;1.00;;;4.60;83.90;;;;;;5089785;28;20089;-66
2023/03/07 09:10:49;;;;;;;1.10;1.00;;;4.60;83.90;;;;;;5093343;28;20099;-65
2023/03/07 09:13:16;;;;;;;1.20;1.00;;;4.70;84.00;;;;;;5108989;27;20134;-65
2023/03/07 09:15:42;;;;;;;0.82;0.82;;;4.70;83.80;;;;;;5107392;27;20022;-66
2023/03/07 09:18:09;;;;;;;1.30;1.00;;;4.70;83.80;;;;;;5093738;27;20024;-66
2023/03/07 09:20:37;;;;;;;0.90;0.90;;;4.70;83.80;;;;;;5107906;27;20039;-66
2023/03/07 09:23:02;;;;;;;1.00;1.00;;;4.70;83.80;;;;;;5094303;27;20355;-67
2023/03/07 09:25:29;;;;;;;0.90;0.90;;;4.70;83.70;;;;;;5104714;27;20039;-66
2023/03/07 09:27:54;;;;;;;1.02;1.00;;;4.70;83.90;;;;;;5110443;27;20126;-66
2023/03/07 09:30:21;;;;;;;1.13;1.02;;;4.70;83.90;;;;;;5099539;27;20942;-66
2023/03/07 09:32:48;;;;;;;1.27;1.10;;;4.70;83.80;;;;;;5096613;28;20024;-65
2023/03/07 09:35:13;;;;;;;1.20;1.10;;;4.70;83.90;;;;;;5100567;27;20027;-66
2023/03/07 09:37:39;;;;;;;1.20;1.10;;;4.80;83.90;;;;;;5106787;27;20045;-66
2023/03/07 09:40:06;;;;;;;1.08;1.00;;;4.80;83.60;;;;;;5099547;28;20027;-64
2023/03/07 09:43:03;;;;;;;1.30;1.20;;;4.80;83.50;;;;;;5099996;28;20050;-65
2023/03/07 09:45:31;;;;;;;2.17;1.20;;;4.80;83.50;;;;;;5095173;28;20573;-65
2023/03/07 09:48:35;;;;;;;1.20;1.10;;;4.90;83.50;;;;;;5099430;28;20032;-64
2023/03/07 09:51:24;;;;;;;1.45;1.15;;;5.00;83.50;;;;;;5092816;28;20051;-65
2023/03/07 09:53:52;;;;;;;0.82;0.82;;;5.10;83.30;;;;;;5096048;28;20062;-65
2023/03/07 09:56:27;;;;;;;1.30;1.10;;;5.10;83.20;;;;;;5097662;27;20694;-65
2023/03/07 09:59:00;;;;;;;1.77;1.27;;;5.10;83.10;;;;;;5092888;28;20508;-65
2023/03/07 10:01:30;;;;;;;1.88;1.00;;;5.20;83.20;;;;;;5099150;28;20024;-67
2023/03/07 10:04:03;;;;;;;1.23;0.98;;;5.20;83.10;;;;;;5098273;28;20031;-67
2023/03/07 10:06:36;;;;;;;1.20;1.10;;;5.20;83.00;;;;;;5098378;28;20161;-65
2023/03/07 10:09:06;;;;;;;3.75;1.30;;;5.30;83.10;;;;;;5099228;28;20034;-65
2023/03/07 10:12:09;;;;;;;1.20;1.05;;;5.30;83.10;;;;;;5097359;28;20027;-66
2023/03/07 10:14:50;;;;;;;1.42;1.20;;;5.30;83.10;;;;;;5105060;28;20493;-66
2023/03/07 10:17:31;;;;;;;1.45;1.10;;;5.30;83.10;;;;;;5100588;28;20056;-64
2023/03/07 10:20:07;;;;;;;3.63;1.20;;;5.30;83.20;;;;;;5102912;28;20451;-64
2023/03/07 10:23:07;;;;;;;2.17;1.10;;;5.30;83.10;;;;;;5100234;28;20470;-65
2023/03/07 10:25:40;;;;;;;1.52;1.08;;;5.40;83.20;;;;;;5100979;28;20020;-65
2023/03/07 10:28:22;;;;;;;1.30;1.20;;;5.40;83.20;;;;;;5100758;28;20028;-66
2023/03/07 10:30:53;;;;;;;1.73;1.10;;;5.40;83.20;;;;;;5101907;28;20024;-64
2023/03/07 10:33:19;;;;;;;2.15;1.02;;;5.40;83.20;;;;;;5101758;28;20031;-66
2023/03/07 10:35:57;;;;;;;26.55;2.20;;;5.60;83.30;;;;;;5101459;28;20050;-65
2023/03/07 10:38:27;;;;;;;0.90;0.85;;;5.70;82.90;;;;;;5101164;28;20076;-64
2023/03/07 10:40:58;;;;;;;1.63;1.20;;;5.80;82.70;;;;;;5105581;27;20050;-66
2023/03/07 10:43:27;;;;;;;1.40;1.30;;;5.80;82.70;;;;;;5101859;27;20477;-67
2023/03/07 10:46:00;;;;;;;1.00;0.90;;;5.80;82.80;;;;;;5098387;27;20139;-65
2023/03/07 10:48:26;;;;;;;1.00;0.90;;;5.80;82.90;;;;;;5101637;28;20036;-65
2023/03/07 10:51:11;;;;;;;0.90;0.90;;;5.80;82.90;;;;;;5098172;27;20047;-66
2023/03/07 10:53:38;;;;;;;1.15;0.93;;;5.80;82.80;;;;;;5104359;28;20502;-65
2023/03/07 10:56:13;;;;;;;0.93;0.90;;;5.90;82.80;;;;;;5109384;27;20016;-65
2023/03/07 10:58:40;;;;;;;1.00;0.90;;;5.90;82.70;;;;;;5105404;27;20024;-65
2023/03/07 11:01:05;;;;;;;1.20;1.10;;;6.00;82.60;;;;;;5104774;27;20034;-65
2023/03/07 11:03:37;;;;;;;2.30;1.17;;;6.10;82.60;;;;;;5100862;28;20490;-66
2023/03/07 11:06:03;;;;;;;1.13;0.87;;;6.10;82.50;;;;;;5105461;28;20516;-65
2023/03/07 11:08:33;;;;;;;1.13;0.85;;;6.20;82.30;;;;;;5106036;27;20119;-65
2023/03/07 11:11:00;;;;;;;0.90;0.90;;;6.20;82.00;;;;;;5109861;27;20032;-66
2023/03/07 11:13:27;;;;;;;1.42;0.90;;;6.20;82.20;;;;;;5101918;28;20015;-65
2023/03/07 11:16:20;;;;;;;1.08;0.98;;;6.20;82.20;;;;;;5106055;27;20498;-66
2023/03/07 11:18:45;;;;;;;0.95;0.90;;;6.10;82.30;;;;;;5107951;27;20032;-66
2023/03/07 11:21:31;;;;;;;0.80;0.80;;;6.10;82.30;;;;;;5105751;27;20028;-65
2023/03/07 11:23:58;;;;;;;0.82;0.82;;;5.90;82.30;;;;;;5105800;27;20085;-65
2023/03/07 11:26:24;;;;;;;1.08;0.98;;;6.00;82.50;;;;;;5109496;27;20016;-65
2023/03/07 11:29:12;;;;;;;0.70;0.70;;;5.90;82.70;;;;;;5100734;27;20492;-66
2023/03/07 11:31:50;;;;;;;2.00;0.80;;;6.00;82.90;;;;;;5098832;27;20035;-64
2023/03/07 11:34:26;;;;;;;0.68;0.60;;;6.00;82.70;;;;;;5105427;27;20039;-65
2023/03/07 11:37:10;;;;;;;0.88;0.70;;;6.00;82.80;;;;;;5103002;28;20012;-64
2023/03/07 11:39:43;;;;;;;0.60;0.60;;;6.10;82.80;;;;;;5102391;28;20580;-65
2023/03/07 11:42:21;;;;;;;1.00;0.75;;;6.10;82.60;;;;;;5108198;28;20036;-64
2023/03/07 11:45:04;;;;;;;0.80;0.80;;;6.10;82.50;;;;;;5101888;27;20092;-64
2023/03/07 11:47:45;;;;;;;0.65;0.60;;;6.10;82.50;;;;;;5103019;27;20011;-67
2023/03/07 11:50:22;;;;;;;1.15;0.60;;;6.10;82.50;;;;;;5102086;28;20039;-65
2023/03/07 11:53:16;;;;;;;0.80;0.80;;;6.00;82.50;;;;;;5108971;27;20405;-66
2023/03/07 11:56:05;;;;;;;1.23;0.70;;;5.90;82.70;;;;;;5104515;28;20051;-65
2023/03/07 11:59:00;;;;;;;1.55;0.70;;;5.90;82.90;;;;;;5101582;27;20032;-64
2023/03/07 12:01:36;;;;;;;0.70;0.70;;;5.90;82.80;;;;;;5100594;28;20055;-66
2023/03/07 12:04:27;;;;;;;0.60;0.60;;;5.90;82.80;;;;;;5104059;28;20073;-65
2023/03/07 12:07:17;;;;;;;1.05;0.73;;;5.90;82.90;;;;;;5104584;27;20061;-64
2023/03/07 12:09:55;;;;;;;0.70;0.70;;;5.90;82.90;;;;;;5100962;27;20546;-65
2023/03/07 12:12:33;;;;;;;1.17;0.85;;;5.80;82.80;;;;;;5101652;27;20035;-65
2023/03/07 12:15:17;;;;;;;0.95;0.80;;;5.80;82.90;;;;;;5105554;27;20023;-65
2023/03/07 12:18:12;;;;;;;0.70;0.70;;;5.80;82.90;;;;;;5102833;27;20016;-65
2023/03/07 12:20:44;;;;;;;1.50;0.80;;;5.80;82.90;;;;;;5109863;27;20102;-65
2023/03/07 12:23:32;;;;;;;2.10;0.90;;;5.80;82.90;;;;;;5110142;27;20051;-65
2023/03/07 12:26:02;;;;;;;2.40;1.02;;;5.80;83.60;;;;;;5098642;27;20032;-65
2023/03/07 12:28:48;;;;;;;0.90;0.90;;;5.70;82.90;;;;;;5095771;27;20027;-64
2023/03/07 12:31:16;;;;;;;0.95;0.90;;;5.50;83.10;;;;;;5107101;27;20036;-65
2023/03/07 12:33:44;;;;;;;0.68;0.65;;;5.40;83.30;;;;;;5102322;27;20015;-65
2023/03/07 12:36:27;;;;;;;1.00;0.90;;;5.20;83.50;;;;;;5102437;28;20031;-65
2023/03/07 12:39:01;;;;;;;;;;;5.10;83.70;;;;;;5097253;28;20295;-66
2023/03/07 12:41:37;;;;;;;;;;;5.00;83.70;;;;;;5094793;28;20401;-66
2023/03/07 12:44:04;;;;;;;;;;;4.90;83.90;;;;;;5106238;28;20265;-65
2023/03/07 12:46:39;;;;;;;;;;;4.80;84.10;;;;;;5107418;28;19921;-67
2023/03/07 12:49:19;;;;;;;;;;;4.70;84.50;;;;;;5103225;27;19908;-67
2023/03/07 12:51:48;;;;;;;;;;;4.80;84.70;;;;;;5104000;28;19915;-64
2023/03/07 12:54:16;;;;;;;;;;;4.80;84.60;;;;;;5104057;28;19912;-67
2023/03/07 12:56:59;;;;;;;;;;;4.80;84.40;;;;;;5101990;27;20382;-65
2023/03/07 12:59:25;;;;;;;;;;;4.70;84.40;;;;;;5105321;27;20593;-66
2023/03/07 13:02:09;;;;;;;;;;;4.60;84.50;;;;;;5102925;27;19916;-67
2023/03/07 13:04:38;;;;;;;;;;;4.70;84.70;;;;;;5102581;27;19969;-65
2023/03/07 13:07:03;;;;;;;;;;;4.70;84.80;;;;;;5100446;27;19911;-67
2023/03/07 13:09:32;;;;;;;;;;;4.70;84.80;;;;;;5103707;28;19934;-67
2023/03/07 13:12:15;;;;;;;;;;;4.70;84.70;;;;;;5108058;28;19916;-68